Time;durP1;ratioP1;P1;durP2;ratioP2;P2;SDS_P1;SDS_P2;PMS_P1;PMS_P2;Temp;Humidity;BMP_temperature;BMP_pressure;BME280_temperature;BME280_humidity;BME280_pressure;Samples;Min_cycle;Max_cycle;Signal;HPM_P1;HPM_P2
2023/10/14 00:02:23;;;;;;;;;;;;;;;18.07;45.97;101254.22;4960517;29;1031;-49
2023/10/14 00:04:52;;;;;;;;;;;;;;;17.17;46.88;101246.16;4951837;29;883;-47
2023/10/14 00:07:20;;;;;;;;;;;;;;;17.01;46.14;101248.81;4947421;29;1104;-49
2023/10/14 00:09:50;;;;;;;;;;;;;;;16.86;45.75;101241.25;4953474;29;1125;-49
2023/10/14 00:12:15;;;;;;;;;;;;;;;17.64;46.17;101238.94;4955578;29;1910;-48
2023/10/14 00:14:44;;;;;;;;;;;;;;;17.31;46.84;101236.31;4960131;29;1127;-51
2023/10/14 00:17:16;;;;;;;;;;;;;;;17.35;47.11;101231.94;4949317;29;1108;-50
2023/10/14 00:19:41;;;;;;;;;;;;;;;18.09;47.07;101227.25;4960182;29;1499;-47
2023/10/14 00:22:08;;;;;;;;;;;;;;;17.44;47.17;101235.81;4957811;29;1136;-47
2023/10/14 00:24:37;;;;;;;;;;;;;;;17.20;46.50;101242.84;4941192;29;1088;-49
2023/10/14 00:27:07;;;;;;;;;;;;;;;17.15;46.20;101234.56;4957157;29;1014;-48
2023/10/14 00:29:34;;;;;;;;;;;;;;;17.50;47.02;101233.94;4955352;29;1049;-51
2023/10/14 00:31:59;;;;;;;;;;;;;;;17.18;46.55;101223.03;4959951;29;1985;-46
2023/10/14 00:34:25;;;;;;;;;;;;;;;18.87;46.40;101221.72;4950621;29;1157;-48
2023/10/14 00:36:55;;;;;;;;;;;;;;;17.66;47.59;101217.50;4957084;29;1093;-48
2023/10/14 00:39:27;;;;;;;;;;;;;;;17.36;46.68;101211.63;4959837;29;1105;-48
2023/10/14 00:41:53;;;;;;;;;;;;;;;17.19;46.02;101216.47;4958710;29;1048;-48
2023/10/14 00:44:19;;;;;;;;;;;;;;;17.10;45.52;101205.97;4959993;29;1112;-52
2023/10/14 00:46:50;;;;;;;;;;;;;;;16.86;45.43;101201.97;4959955;29;1129;-50
2023/10/14 00:49:16;;;;;;;;;;;;;;;17.62;46.33;101197.94;4960104;29;1109;-50
2023/10/14 00:51:42;;;;;;;;;;;;;;;17.20;46.36;101190.66;4958085;29;1986;-51
2023/10/14 00:54:11;;;;;;;;;;;;;;;16.96;45.84;101201.22;4942144;29;952;-52
2023/10/14 00:56:40;;;;;;;;;;;;;;;18.06;46.41;101194.78;4959061;29;1154;-48
2023/10/14 00:59:06;;;;;;;;;;;;;;;17.25;47.02;101194.25;4958748;29;1311;-48
2023/10/14 01:01:32;;;;;;;;;;;;;;;17.09;46.29;101190.56;4953059;29;1187;-50
2023/10/14 01:04:17;;;;;;;;;;;;;;;16.92;45.77;101192.69;4952003;28;1068;-52
2023/10/14 01:07:04;;;;;;;;;;;;;;;17.41;45.85;101192.38;4974411;28;1519;-48
2023/10/14 01:12:16;;;;;;;;;;;;;;;17.18;46.52;101185.41;4957681;29;1919;-51
2023/10/14 01:14:57;;;;;;;;;;;;;;;17.01;45.85;101180.13;4959128;29;1139;-50
2023/10/14 01:17:32;;;;;;;;;;;;;;;17.28;46.35;101179.97;4950280;29;2657;-46
2023/10/14 01:22:40;;;;;;;;;;;;;;;17.08;46.24;101177.94;4946533;29;1025;-51
2023/10/14 01:25:11;;;;;;;;;;;;;;;18.09;46.30;101180.47;4957913;29;1157;-48
2023/10/14 01:27:38;;;;;;;;;;;;;;;17.34;47.05;101174.50;4958186;29;1451;-48
2023/10/14 01:30:10;;;;;;;;;;;;;;;17.17;46.33;101177.44;4957817;29;903;-49
2023/10/14 01:37:48;;;;;;;;;;;;;;;17.17;46.73;101174.69;4947916;29;1219;-48
2023/10/14 01:42:46;;;;;;;;;;;;;;;17.78;46.69;101174.03;4940231;29;1029;-47
2023/10/14 01:45:13;;;;;;;;;;;;;;;17.34;46.63;101175.31;4958199;29;1017;-49
2023/10/14 01:47:44;;;;;;;;;;;;;;;17.06;46.30;101171.88;4958037;29;1106;-50
2023/10/14 01:50:12;;;;;;;;;;;;;;;18.29;46.12;101167.81;4946756;29;1902;-49
2023/10/14 01:52:38;;;;;;;;;;;;;;;17.42;47.15;101161.03;4956608;29;1543;-51
2023/10/14 01:55:04;;;;;;;;;;;;;;;17.21;46.38;101160.13;4957669;29;1278;-51
2023/10/14 01:57:29;;;;;;;;;;;;;;;17.02;45.86;101161.69;4944060;29;1119;-45
2023/10/14 01:59:55;;;;;;;;;;;;;;;16.98;45.33;101161.41;4944844;29;1113;-52
2023/10/14 02:02:21;;;;;;;;;;;;;;;17.60;46.41;101167.97;4956822;29;1249;-51
2023/10/14 02:04:47;;;;;;;;;;;;;;;17.13;46.23;101166.16;4960209;28;1254;-50
2023/10/14 02:07:18;;;;;;;;;;;;;;;17.02;45.66;101167.19;4958853;29;1140;-48
2023/10/14 02:09:44;;;;;;;;;;;;;;;16.98;45.12;101169.63;4939881;29;1089;-51
2023/10/14 02:12:11;;;;;;;;;;;;;;;16.82;44.85;101163.22;4952836;29;1914;-49
2023/10/14 02:14:44;;;;;;;;;;;;;;;17.93;45.91;101167.78;4956632;28;1147;-51
2023/10/14 02:17:10;;;;;;;;;;;;;;;17.12;46.63;101169.16;4946923;29;1152;-50
2023/10/14 02:19:38;;;;;;;;;;;;;;;16.96;46.02;101163.59;4946476;29;1666;-49
2023/10/14 02:22:09;;;;;;;;;;;;;;;17.97;46.00;101168.91;4945177;29;1144;-49
2023/10/14 02:24:36;;;;;;;;;;;;;;;17.21;46.66;101164.81;4956544;28;1346;-51
2023/10/14 02:27:14;;;;;;;;;;;;;;;16.98;46.28;101166.88;4957274;28;1156;-47
2023/10/14 02:29:46;;;;;;;;;;;;;;;17.58;46.77;101161.91;4939555;29;1327;-48
2023/10/14 02:32:12;;;;;;;;;;;;;;;17.08;46.73;101155.97;4955621;28;1973;-49
2023/10/14 02:34:43;;;;;;;;;;;;;;;17.34;46.78;101158.81;4958106;28;1307;-48
2023/10/14 02:37:13;;;;;;;;;;;;;;;17.46;46.68;101158.59;4957858;28;1105;-48
2023/10/14 02:39:38;;;;;;;;;;;;;;;17.02;46.58;101150.72;4957876;28;1414;-50
2023/10/14 02:44:32;;;;;;;;;;;;;;;17.49;47.05;101154.44;4956249;29;2277;-47
2023/10/14 02:47:05;;;;;;;;;;;;;;;17.21;46.13;101159.31;4954684;28;2113;-50
2023/10/14 02:49:37;;;;;;;;;;;;;;;17.01;45.55;101166.38;4950694;29;2183;-51
2023/10/14 02:52:11;;;;;;;;;;;;;;;17.70;46.11;101152.59;4947328;29;2079;-47
2023/10/14 02:54:39;;;;;;;;;;;;;;;17.45;46.34;101166.00;4949164;28;2389;-49
2023/10/14 02:57:23;;;;;;;;;;;;;;;17.04;46.17;101163.09;4948885;29;2195;-49
2023/10/14 02:59:49;;;;;;;;;;;;;;;17.58;46.20;101156.41;4948701;28;1144;-51
2023/10/14 03:02:25;;;;;;;;;;;;;;;17.40;47.09;101156.91;4971580;28;1448;-51
2023/10/14 03:07:30;;;;;;;;;;;;;;;18.09;46.36;101166.72;4957231;28;1349;-49
2023/10/14 03:10:10;;;;;;;;;;;;;;;17.28;46.85;101163.47;4957610;28;1223;-51
2023/10/14 03:12:39;;;;;;;;;;;;;;;17.04;45.91;101163.09;4957915;28;1914;-49
2023/10/14 03:15:20;;;;;;;;;;;;;;;17.04;45.57;101165.84;4970286;28;1179;-50
2023/10/14 03:17:55;;;;;;;;;;;;;;;17.55;46.27;101164.38;4962892;28;1452;-49
2023/10/14 03:22:54;;;;;;;;;;;;;;;17.20;46.08;101163.97;4957420;28;1441;-50
2023/10/14 03:25:23;;;;;;;;;;;;;;;17.43;46.43;101154.47;4957537;28;1014;-51
2023/10/14 03:27:58;;;;;;;;;;;;;;;17.13;46.26;101157.91;4959255;28;1917;-49
2023/10/14 03:30:24;;;;;;;;;;;;;;;17.34;46.28;101160.75;4954677;29;1906;-45
2023/10/14 03:32:49;;;;;;;;;;;;;;;17.47;46.54;101162.16;4961277;29;1077;-48
2023/10/14 03:35:20;;;;;;;;;;;;;;;17.08;46.38;101155.97;4956678;29;1113;-49
2023/10/14 03:37:53;;;;;;;;;;;;;;;16.92;45.73;101154.22;4953208;29;1046;-50
2023/10/14 03:40:37;;;;;;;;;;;;;;;17.31;45.79;101153.84;4954694;29;1149;-50
2023/10/14 03:43:14;;;;;;;;;;;;;;;17.33;46.23;101168.16;4943093;29;1092;-52
2023/10/14 03:45:53;;;;;;;;;;;;;;;17.00;46.01;101159.22;4951241;29;1029;-52
2023/10/14 03:48:21;;;;;;;;;;;;;;;17.62;46.46;101163.00;4946596;29;1116;-56
2023/10/14 03:50:46;;;;;;;;;;;;;;;17.19;46.47;101147.75;4948666;28;1902;-56
2023/10/14 03:53:12;;;;;;;;;;;;;;;16.99;45.65;101154.00;4946723;29;1017;-53
2023/10/14 03:55:38;;;;;;;;;;;;;;;16.96;45.70;101143.53;4953269;29;887;-54
2023/10/14 03:58:04;;;;;;;;;;;;;;;17.65;46.44;101147.91;4953695;29;2309;-56
2023/10/14 04:00:39;;;;;;;;;;;;;;;17.12;46.62;101147.19;4952631;29;1093;-56
2023/10/14 04:03:11;;;;;;;;;;;;;;;17.60;46.55;101147.91;4960495;28;1042;-55
2023/10/14 04:05:37;;;;;;;;;;;;;;;17.42;46.94;101143.72;4948388;29;1001;-53
2023/10/14 04:08:05;;;;;;;;;;;;;;;17.20;46.43;101143.94;4960473;29;1021;-46
2023/10/14 04:10:35;;;;;;;;;;;;;;;17.18;46.55;101143.34;4960172;29;1977;-50
2023/10/14 04:13:04;;;;;;;;;;;;;;;17.52;47.03;101138.25;4960732;29;1094;-51
2023/10/14 04:17:55;;;;;;;;;;;;;;;17.04;45.77;101152.09;4943944;29;1077;-50
2023/10/14 04:20:22;;;;;;;;;;;;;;;16.92;45.51;101149.56;4947149;29;1137;-51
2023/10/14 04:22:51;;;;;;;;;;;;;;;17.66;46.55;101151.50;4960470;29;1052;-50
2023/10/14 04:25:19;;;;;;;;;;;;;;;17.14;46.58;101161.47;4947277;29;1093;-49
2023/10/14 04:33:04;;;;;;;;;;;;;;;17.23;46.45;101162.63;4950786;29;1129;-51
2023/10/14 04:35:33;;;;;;;;;;;;;;;17.61;45.85;101163.28;4959784;29;1021;-52
2023/10/14 04:38:13;;;;;;;;;;;;;;;18.05;45.03;101167.53;4947632;28;1112;-52
2023/10/14 04:40:39;;;;;;;;;;;;;;;17.72;45.96;101172.41;4948443;29;959;-51
2023/10/14 04:45:51;;;;;;;;;;;;;;;17.36;47.29;101166.78;4959844;29;1076;-53
2023/10/14 04:48:17;;;;;;;;;;;;;;;17.20;47.49;101163.16;4946714;29;1081;-51
2023/10/14 04:50:44;;;;;;;;;;;;;;;17.08;48.05;101168.88;4957419;29;1971;-50
2023/10/14 04:53:13;;;;;;;;;;;;;;;16.98;48.36;101160.59;4957049;29;950;-52
2023/10/14 04:55:43;;;;;;;;;;;;;;;16.95;48.47;101166.63;4956663;29;1057;-52
2023/10/14 05:00:41;;;;;;;;;;;;;;;16.75;49.21;101174.44;4957133;29;1068;-50
2023/10/14 05:03:06;;;;;;;;;;;;;;;16.67;49.31;101176.84;4948041;29;1002;-50
2023/10/14 05:05:33;;;;;;;;;;;;;;;16.65;49.50;101174.38;4945520;29;1025;-49
2023/10/14 05:07:59;;;;;;;;;;;;;;;16.57;49.59;101180.34;4942097;29;850;-51
2023/10/14 05:10:31;;;;;;;;;;;;;;;16.51;49.70;101173.16;4944511;29;1902;-50
2023/10/14 05:12:56;;;;;;;;;;;;;;;16.45;49.99;101175.03;4959276;29;1118;-49
2023/10/14 05:15:26;;;;;;;;;;;;;;;16.41;50.03;101174.75;4954189;29;1036;-50
2023/10/14 05:18:00;;;;;;;;;;;;;;;17.08;48.97;101174.34;4959219;29;1153;-48
2023/10/14 05:20:54;;;;;;;;;;;;;;;17.21;48.51;101170.31;4947593;29;1153;-50
2023/10/14 05:23:19;;;;;;;;;;;;;;;16.80;49.28;101175.56;4958469;29;1620;-48
2023/10/14 05:25:57;;;;;;;;;;;;;;;16.58;50.14;101176.53;4957837;29;1010;-50
2023/10/14 05:28:29;;;;;;;;;;;;;;;16.51;50.32;101174.00;4947821;29;2605;-47
2023/10/14 05:31:00;;;;;;;;;;;;;;;16.47;50.41;101172.88;4949493;29;1906;-48
2023/10/14 05:33:27;;;;;;;;;;;;;;;16.42;50.49;101170.06;4951446;29;882;-47
2023/10/14 05:35:56;;;;;;;;;;;;;;;17.41;48.34;101183.31;4958631;29;1314;-51
2023/10/14 05:38:22;;;;;;;;;;;;;;;17.18;48.94;101179.06;4953863;29;1045;-53
2023/10/14 05:40:48;;;;;;;;;;;;;;;16.79;49.73;101179.38;4950419;29;1086;-49
2023/10/14 05:43:13;;;;;;;;;;;;;;;16.57;50.21;101174.84;4949076;29;1168;-51
2023/10/14 05:45:39;;;;;;;;;;;;;;;16.51;50.39;101173.16;4955266;29;1113;-50
2023/10/14 05:48:07;;;;;;;;;;;;;;;17.04;49.63;101182.31;4958488;29;1045;-49
2023/10/14 05:50:33;;;;;;;;;;;;;;;17.30;48.95;101181.63;4949440;28;1902;-52
2023/10/14 05:52:59;;;;;;;;;;;;;;;16.86;50.14;101174.50;4947052;29;1176;-51
2023/10/14 05:55:25;;;;;;;;;;;;;;;16.68;50.55;101184.81;4951278;29;1133;-52
2023/10/14 05:57:51;;;;;;;;;;;;;;;16.58;50.51;101182.81;4951540;29;2370;-53
2023/10/14 06:00:23;;;;;;;;;;;;;;;16.47;51.06;101183.03;4945367;29;1145;-49
2023/10/14 06:02:49;;;;;;;;;;;;;;;17.29;49.42;101186.25;4946863;29;962;-46
2023/10/14 06:05:16;;;;;;;;;;;;;;;17.20;49.39;101193.38;4950480;29;1161;-49
2023/10/14 06:07:46;;;;;;;;;;;;;;;16.80;50.53;101186.53;4949530;29;1022;-48
2023/10/14 06:10:12;;;;;;;;;;;;;;;16.58;50.75;101193.00;4943794;29;1185;-49
2023/10/14 06:12:39;;;;;;;;;;;;;;;16.52;51.13;101185.78;4952548;29;1910;-52
2023/10/14 06:15:09;;;;;;;;;;;;;;;16.51;50.98;101181.38;4958135;29;1049;-50
2023/10/14 06:17:38;;;;;;;;;;;;;;;17.36;49.34;101181.38;4953486;29;1026;-47
2023/10/14 06:20:06;;;;;;;;;;;;;;;17.21;49.60;101184.06;4956109;29;950;-49
2023/10/14 06:22:32;;;;;;;;;;;;;;;16.87;50.34;101193.47;4958195;29;1149;-50
2023/10/14 06:24:57;;;;;;;;;;;;;;;16.66;50.96;101181.53;4957789;29;1092;-50
2023/10/14 06:27:24;;;;;;;;;;;;;;;16.58;51.28;101184.75;4954391;29;1817;-48
2023/10/14 06:29:50;;;;;;;;;;;;;;;17.18;50.19;101190.91;4938812;29;1037;-48
2023/10/14 06:32:19;;;;;;;;;;;;;;;17.26;49.72;101179.41;4957499;29;1972;-52
2023/10/14 06:34:47;;;;;;;;;;;;;;;16.84;50.52;101182.16;4945258;29;1041;-49
2023/10/14 06:37:12;;;;;;;;;;;;;;;16.69;50.98;101191.97;4948615;29;1185;-50
2023/10/14 06:39:41;;;;;;;;;;;;;;;16.58;51.33;101187.50;4945394;29;1109;-50
2023/10/14 06:42:07;;;;;;;;;;;;;;;16.50;51.59;101188.81;4941367;29;1122;-51
2023/10/14 06:44:32;;;;;;;;;;;;;;;16.41;51.48;101190.38;4954161;29;887;-49
2023/10/14 06:46:58;;;;;;;;;;;;;;;17.62;48.98;101182.25;4951137;29;1173;-48
2023/10/14 06:49:32;;;;;;;;;;;;;;;17.14;50.08;101187.03;4957541;29;1113;-46
2023/10/14 06:52:00;;;;;;;;;;;;;;;16.75;51.04;101184.59;4957572;29;1907;-48
2023/10/14 06:54:26;;;;;;;;;;;;;;;16.61;51.54;101181.47;4957521;29;1117;-49
2023/10/14 06:56:53;;;;;;;;;;;;;;;16.53;51.67;101190.19;4952261;29;998;-51
2023/10/14 06:59:19;;;;;;;;;;;;;;;16.76;51.33;101192.56;4942748;29;2568;-51
2023/10/14 07:01:44;;;;;;;;;;;;;;;17.50;49.50;101186.34;4948164;29;1211;-49
2023/10/14 07:04:12;;;;;;;;;;;;;;;16.92;50.88;101178.97;4961796;29;1084;-45
2023/10/14 07:06:42;;;;;;;;;;;;;;;16.75;51.44;101179.91;4961204;29;1189;-47
2023/10/14 07:09:17;;;;;;;;;;;;;;;16.62;51.41;101182.28;4958411;29;891;-48
2023/10/14 07:11:43;;;;;;;;;;;;;;;16.49;52.00;101180.84;4960883;29;1911;-49
2023/10/14 07:14:08;;;;;;;;;;;;;;;17.31;50.08;101181.34;4944392;29;1029;-48
2023/10/14 07:16:35;;;;;;;;;;;;;;;17.33;50.06;101172.81;4952549;29;1091;-47
2023/10/14 07:19:00;;;;;;;;;;;;;;;16.90;50.88;101170.13;4958526;29;1073;-50
2023/10/14 07:21:26;;;;;;;;;;;;;;;16.75;51.39;101179.91;4960939;29;1018;-49
2023/10/14 07:23:51;;;;;;;;;;;;;;;16.66;51.82;101173.28;4957812;29;1092;-48
2023/10/14 07:26:17;;;;;;;;;;;;;;;16.54;51.81;101170.72;4952266;29;1117;-50
2023/10/14 07:28:42;;;;;;;;;;;;;;;16.47;52.04;101172.88;4957291;29;2405;-47
2023/10/14 07:31:11;;;;;;;;;;;;;;;17.55;49.79;101164.38;4943602;29;1962;-50
2023/10/14 07:33:38;;;;;;;;;;;;;;;17.08;50.99;101163.38;4959437;29;1110;-47
2023/10/14 07:36:06;;;;;;;;;;;;;;;16.81;51.63;101163.47;4961248;29;1040;-52
2023/10/14 07:38:33;;;;;;;;;;;;;;;16.67;51.88;101165.88;4943765;29;1167;-47
2023/10/14 07:41:01;;;;;;;;;;;;;;;16.69;51.90;101158.19;4952921;29;1145;-47
2023/10/14 07:43:26;;;;;;;;;;;;;;;16.50;52.38;101155.88;4960461;29;1049;-49
2023/10/14 07:45:52;;;;;;;;;;;;;;;16.61;52.38;101165.00;4960693;29;1009;-48
2023/10/14 07:48:19;;;;;;;;;;;;;;;17.56;49.89;101160.53;4948032;29;1199;-47
2023/10/14 07:50:48;;;;;;;;;;;;;;;17.01;51.44;101162.78;4952858;29;1965;-52
2023/10/14 07:53:14;;;;;;;;;;;;;;;16.80;51.95;101154.41;4954475;29;1221;-49
2023/10/14 07:55:48;;;;;;;;;;;;;;;16.64;52.25;101152.66;4949407;29;1083;-47
2023/10/14 07:58:14;;;;;;;;;;;;;;;16.56;52.48;101153.97;4948045;29;2518;-48
2023/10/14 08:00:41;;;;;;;;;;;;;;;16.52;52.53;101155.59;4959875;29;1188;-47
2023/10/14 08:03:07;;;;;;;;;;;;;;;16.41;52.79;101154.69;4957130;29;1125;-50
2023/10/14 08:05:38;;;;;;;;;;;;;;;16.37;52.88;101154.41;4959454;29;1092;-51
2023/10/14 08:08:08;;;;;;;;;;;;;;;17.55;50.74;101150.63;4949318;29;1189;-48
2023/10/14 08:10:34;;;;;;;;;;;;;;;17.08;51.96;101153.22;4947700;29;1972;-51
2023/10/14 08:13:04;;;;;;;;;;;;;;;16.78;52.57;101156.59;4952444;28;1085;-52
2023/10/14 08:15:31;;;;;;;;;;;;;;;16.62;52.94;101147.44;4944449;29;1070;-48
2023/10/14 08:17:58;;;;;;;;;;;;;;;16.57;52.84;101150.97;4954074;29;1143;-48
2023/10/14 08:20:23;;;;;;;;;;;;;;;16.56;53.14;101153.97;4948731;29;1152;-49
2023/10/14 08:22:49;;;;;;;;;;;;;;;17.50;51.32;101131.38;4951816;29;1057;-51
2023/10/14 08:25:18;;;;;;;;;;;;;;;17.01;52.43;101149.91;4954539;29;1090;-50
2023/10/14 08:27:44;;;;;;;;;;;;;;;16.71;52.99;101140.34;4953481;29;2447;-51
2023/10/14 08:30:13;;;;;;;;;;;;;;;16.63;53.14;101151.81;4955764;29;1386;-48
2023/10/14 08:32:39;;;;;;;;;;;;;;;16.62;53.06;101147.44;4959659;29;1926;-45
2023/10/14 08:35:14;;;;;;;;;;;;;;;16.47;53.52;101139.94;4959558;29;1033;-47
2023/10/14 08:37:47;;;;;;;;;;;;;;;17.61;51.58;101142.13;4959937;29;852;-50
2023/10/14 08:40:16;;;;;;;;;;;;;;;17.13;52.69;101135.91;4958715;29;1078;-47
2023/10/14 08:42:46;;;;;;;;;;;;;;;16.86;53.28;101136.06;4958125;29;1116;-49
2023/10/14 08:45:11;;;;;;;;;;;;;;;16.77;53.23;101139.31;4956663;29;895;-51
2023/10/14 08:47:37;;;;;;;;;;;;;;;16.67;53.63;101135.66;4947052;29;1082;-51
2023/10/14 08:50:02;;;;;;;;;;;;;;;16.59;53.52;101132.31;4945989;29;1043;-50
2023/10/14 08:52:28;;;;;;;;;;;;;;;16.49;53.81;101131.44;4946722;29;1910;-47
2023/10/14 08:54:54;;;;;;;;;;;;;;;16.42;53.93;101126.16;4958334;29;1105;-47
2023/10/14 08:57:22;;;;;;;;;;;;;;;16.42;53.61;101134.41;4944469;29;1873;-50
2023/10/14 08:59:49;;;;;;;;;;;;;;;17.43;52.58;101132.47;4940496;29;1061;-50
2023/10/14 09:02:15;;;;;;;;;;;;;;;17.10;53.10;101125.47;4946937;29;1114;-51
2023/10/14 09:04:40;;;;;;;;;;;;;;;16.80;53.68;101126.13;4958039;29;1061;-49
2023/10/14 09:07:12;;;;;;;;;;;;;;;16.69;53.75;101126.06;4953086;29;1058;-49
2023/10/14 09:09:37;;;;;;;;;;;;;;;16.56;54.00;101110.06;4940731;29;971;-49
2023/10/14 09:12:10;;;;;;;;;;;;;;;16.49;54.14;101120.44;4954308;29;1918;-49
2023/10/14 09:14:39;;;;;;;;;;;;;;;16.91;53.69;101117.72;4959186;29;1013;-48
2023/10/14 09:17:05;;;;;;;;;;;;;;;17.44;52.51;101108.53;4950272;28;1025;-50
2023/10/14 09:19:42;;;;;;;;;;;;;;;16.95;53.67;101117.16;4948075;29;1077;-45
2023/10/14 09:22:08;;;;;;;;;;;;;;;16.78;54.07;101118.16;4957688;29;943;-46
2023/10/14 09:24:34;;;;;;;;;;;;;;;16.65;54.14;101105.72;4949227;29;1121;-47
2023/10/14 09:26:59;;;;;;;;;;;;;;;16.65;53.83;101108.47;4954560;29;2385;-48
2023/10/14 09:29:26;;;;;;;;;;;;;;;16.48;54.20;101102.31;4947685;29;1075;-50
2023/10/14 09:31:51;;;;;;;;;;;;;;;16.47;53.82;101093.25;4957652;29;1914;-48
2023/10/14 09:34:23;;;;;;;;;;;;;;;16.36;54.20;101097.84;4948587;29;1007;-47
2023/10/14 09:36:49;;;;;;;;;;;;;;;17.22;53.51;101098.59;4952376;29;1023;-50
2023/10/14 09:39:20;;;;;;;;;;;;;;;17.24;53.43;101081.84;4957225;29;1196;-51
2023/10/14 09:41:47;;;;;;;;;;;;;;;16.84;54.25;101080.53;4952621;29;1015;-46
2023/10/14 09:44:12;;;;;;;;;;;;;;;16.75;54.17;101083.81;4953855;29;1197;-47
2023/10/14 09:46:40;;;;;;;;;;;;;;;16.64;54.20;101073.88;4957361;29;891;-48
2023/10/14 09:49:10;;;;;;;;;;;;;;;16.52;54.23;101068.59;4958356;29;1192;-48
2023/10/14 09:51:36;;;;;;;;;;;;;;;16.50;54.23;101069.94;4957130;29;1971;-47
2023/10/14 09:54:03;;;;;;;;;;;;;;;16.85;54.45;101065.72;4954179;29;1245;-47
2023/10/14 09:56:28;;;;;;;;;;;;;;;17.46;53.06;101070.63;4941217;29;1140;-49
2023/10/14 09:58:54;;;;;;;;;;;;;;;16.96;53.97;101059.22;4956730;29;2602;-51
2023/10/14 10:01:19;;;;;;;;;;;;;;;16.75;54.40;101055.53;4951093;29;1276;-46
2023/10/14 10:03:45;;;;;;;;;;;;;;;16.66;54.41;101048.88;4951958;29;1121;-50
2023/10/14 10:06:13;;;;;;;;;;;;;;;16.60;54.45;101048.84;4945344;29;1196;-48
2023/10/14 10:08:59;;;;;;;;;;;;;;;17.65;52.92;101046.16;4957934;29;1126;-51
2023/10/14 10:11:25;;;;;;;;;;;;;;;17.03;53.84;101040.53;4947054;29;1975;-50
2023/10/14 10:13:53;;;;;;;;;;;;;;;16.87;54.12;101028.66;4947710;29;1084;-51
2023/10/14 10:16:22;;;;;;;;;;;;;;;16.72;54.44;101036.84;4948429;29;1187;-49
2023/10/14 10:18:48;;;;;;;;;;;;;;;16.63;54.10;101027.47;4940582;29;1146;-45
2023/10/14 10:21:14;;;;;;;;;;;;;;;16.60;53.96;101023.31;4957958;29;1164;-49
2023/10/14 10:23:42;;;;;;;;;;;;;;;17.13;54.15;101014.22;4948628;29;1040;-48
2023/10/14 10:26:08;;;;;;;;;;;;;;;17.35;53.45;101023.03;4958065;29;1103;-48
2023/10/14 10:28:37;;;;;;;;;;;;;;;16.97;54.05;101022.41;4949181;29;2405;-50
2023/10/14 10:31:17;;;;;;;;;;;;;;;16.81;54.52;101012.44;4958104;29;1914;-47
2023/10/14 10:33:45;;;;;;;;;;;;;;;16.75;54.21;101017.91;4949685;29;1139;-47
2023/10/14 10:36:12;;;;;;;;;;;;;;;16.63;54.30;101009.06;4957916;28;1045;-48
2023/10/14 10:38:38;;;;;;;;;;;;;;;16.56;54.24;101003.00;4952470;29;990;-50
2023/10/14 10:41:29;;;;;;;;;;;;;;;16.56;54.27;101000.25;4950490;29;1014;-48
2023/10/14 10:44:01;;;;;;;;;;;;;;;16.49;54.02;100989.50;4955695;29;1865;-48
2023/10/14 10:46:42;;;;;;;;;;;;;;;17.46;53.51;100982.66;4957115;29;867;-47
2023/10/14 10:49:10;;;;;;;;;;;;;;;17.27;54.06;100985.91;4957578;29;1110;-50
2023/10/14 10:51:36;;;;;;;;;;;;;;;16.95;54.68;100988.88;4957794;29;1972;-50
2023/10/14 10:54:02;;;;;;;;;;;;;;;16.77;54.53;100980.03;4957499;29;1130;-50
2023/10/14 10:56:31;;;;;;;;;;;;;;;16.72;54.44;100981.94;4957749;28;1168;-50
2023/10/14 10:58:56;;;;;;;;;;;;;;;16.63;54.51;100978.84;4942336;29;2361;-48
2023/10/14 11:01:22;;;;;;;;;;;;;;;16.60;54.28;100973.91;4950927;29;1186;-46
2023/10/14 11:03:49;;;;;;;;;;;;;;;16.81;54.66;100973.97;4937659;29;1101;-49
2023/10/14 11:06:17;;;;;;;;;;;;;;;17.44;53.68;100968.34;4944468;29;1062;-50
2023/10/14 11:08:43;;;;;;;;;;;;;;;16.97;54.73;100964.72;4949083;29;1117;-49
2023/10/14 11:11:08;;;;;;;;;;;;;;;16.82;54.83;100965.47;4957428;29;1903;-50
2023/10/14 11:13:37;;;;;;;;;;;;;;;16.67;54.75;100962.69;4944331;29;1133;-50
2023/10/14 11:16:11;;;;;;;;;;;;;;;16.66;54.74;100955.53;4957469;29;959;-49
2023/10/14 11:18:47;;;;;;;;;;;;;;;16.53;54.47;100959.59;4957117;29;1041;-51
2023/10/14 11:21:13;;;;;;;;;;;;;;;16.51;54.23;100950.81;4952759;29;1053;-50
2023/10/14 11:23:39;;;;;;;;;;;;;;;16.47;54.69;100952.47;4948788;29;1054;-48
2023/10/14 11:26:08;;;;;;;;;;;;;;;17.65;53.96;100944.41;4952661;29;1101;-49
2023/10/14 11:28:33;;;;;;;;;;;;;;;17.05;54.84;100942.19;4956050;29;2655;-48
2023/10/14 11:30:59;;;;;;;;;;;;;;;16.88;54.74;100931.44;4954799;29;1910;-47
2023/10/14 11:33:26;;;;;;;;;;;;;;;16.73;54.96;100947.84;4942956;29;1085;-51
2023/10/14 11:35:51;;;;;;;;;;;;;;;16.71;54.65;100939.91;4955004;29;1151;-49
2023/10/14 11:38:17;;;;;;;;;;;;;;;16.61;54.53;100937.13;4938511;29;1017;-50
2023/10/14 11:40:45;;;;;;;;;;;;;;;16.55;54.49;100935.44;4950579;29;1122;-49
2023/10/14 11:43:11;;;;;;;;;;;;;;;16.56;54.25;100934.34;4946850;29;1061;-48
2023/10/14 11:45:41;;;;;;;;;;;;;;;16.62;54.93;100924.22;4944325;29;1054;-50
2023/10/14 11:48:07;;;;;;;;;;;;;;;17.42;54.32;100927.38;4947800;29;1102;-48
2023/10/14 11:50:33;;;;;;;;;;;;;;;16.92;55.21;100926.25;4948088;29;1907;-50
2023/10/14 11:52:59;;;;;;;;;;;;;;;16.70;55.22;100919.00;4945359;29;1046;-49
2023/10/14 11:55:28;;;;;;;;;;;;;;;16.70;54.93;100918.19;4959389;29;1088;-45
2023/10/14 11:57:58;;;;;;;;;;;;;;;16.60;54.78;100917.06;4960012;29;2248;-48
2023/10/14 12:00:23;;;;;;;;;;;;;;;16.54;54.74;100920.09;4941116;29;1006;-49
2023/10/14 12:02:49;;;;;;;;;;;;;;;16.48;54.56;100910.16;4958329;29;1154;-50
2023/10/14 12:05:16;;;;;;;;;;;;;;;17.49;54.59;100912.50;4960319;29;1033;-49
2023/10/14 12:07:43;;;;;;;;;;;;;;;17.19;54.83;100914.19;4956416;29;1092;-48
2023/10/14 12:10:09;;;;;;;;;;;;;;;16.82;55.30;100904.25;4941234;29;1461;-49
2023/10/14 12:12:34;;;;;;;;;;;;;;;16.74;55.15;100911.06;4957837;29;1914;-46
2023/10/14 12:15:05;;;;;;;;;;;;;;;16.68;54.72;100906.69;4950035;29;1052;-48
2023/10/14 12:17:31;;;;;;;;;;;;;;;16.56;54.70;100901.41;4958779;29;991;-52
2023/10/14 12:19:57;;;;;;;;;;;;;;;16.51;54.67;100906.88;4949744;28;1137;-50
2023/10/14 12:22:22;;;;;;;;;;;;;;;17.62;54.42;100906.47;4953572;29;1283;-47
2023/10/14 12:24:48;;;;;;;;;;;;;;;17.15;55.01;100899.34;4952403;29;1033;-47
2023/10/14 12:27:18;;;;;;;;;;;;;;;16.92;54.93;100898.78;4947084;29;2224;-51
2023/10/14 12:29:44;;;;;;;;;;;;;;;16.75;55.13;100880.59;4948137;29;1110;-49
2023/10/14 12:32:14;;;;;;;;;;;;;;;16.70;55.06;100883.31;4959084;29;1922;-50
2023/10/14 12:34:43;;;;;;;;;;;;;;;16.56;54.85;100879.47;4957431;29;1183;-50
2023/10/14 12:37:17;;;;;;;;;;;;;;;16.60;54.62;100880.56;4941123;29;1015;-50
2023/10/14 12:39:44;;;;;;;;;;;;;;;16.49;54.59;100881.63;4953655;29;1070;-50
2023/10/14 12:42:09;;;;;;;;;;;;;;;17.09;55.36;100882.03;4948831;29;1077;-52
2023/10/14 12:44:37;;;;;;;;;;;;;;;17.29;54.89;100875.69;4958278;29;1089;-50
2023/10/14 12:47:10;;;;;;;;;;;;;;;16.92;55.47;100871.31;4953510;29;1336;-51
2023/10/14 12:49:39;;;;;;;;;;;;;;;16.77;55.24;100872.94;4960130;29;1025;-51
2023/10/14 12:52:15;;;;;;;;;;;;;;;16.72;54.81;100869.34;4959753;29;1931;-50
2023/10/14 12:54:41;;;;;;;;;;;;;;;16.59;54.76;100863.28;4960085;29;1045;-53
2023/10/14 12:57:08;;;;;;;;;;;;;;;16.54;54.71;100852.28;4949681;29;1928;-50
2023/10/14 12:59:39;;;;;;;;;;;;;;;16.64;55.22;100854.22;4945190;29;1184;-53
2023/10/14 13:02:11;;;;;;;;;;;;;;;17.51;54.76;100847.91;4959575;29;1106;-51
2023/10/14 13:04:41;;;;;;;;;;;;;;;17.01;55.48;100842.22;4959295;29;985;-52
2023/10/14 13:07:08;;;;;;;;;;;;;;;16.83;55.43;100850.94;4958798;29;1140;-50
2023/10/14 13:09:39;;;;;;;;;;;;;;;16.72;55.25;100852.88;4959887;29;1018;-49
2023/10/14 13:12:13;;;;;;;;;;;;;;;16.63;55.16;100838.03;4940900;29;1914;-50
2023/10/14 13:14:39;;;;;;;;;;;;;;;16.60;54.96;100845.69;4949178;29;1259;-48
2023/10/14 13:17:06;;;;;;;;;;;;;;;16.83;55.65;100845.44;4958966;29;1201;-47
2023/10/14 13:19:35;;;;;;;;;;;;;;;17.58;54.96;100842.13;4951092;29;1045;-52
2023/10/14 13:22:02;;;;;;;;;;;;;;;17.11;55.67;100835.88;4953395;29;1207;-50
2023/10/14 13:24:27;;;;;;;;;;;;;;;16.87;55.60;100832.81;4959274;29;1037;-52
2023/10/14 13:26:53;;;;;;;;;;;;;;;16.69;55.53;100840.50;4955591;29;1099;-53
2023/10/14 13:29:18;;;;;;;;;;;;;;;16.69;55.08;100839.66;4958992;29;2574;-51